createdAt,value
2017-10-20T00:01:15.493Z,9.50
2017-10-20T00:03:18.154Z,9.23
2017-10-20T00:05:20.840Z,9.40
2017-10-20T00:07:23.514Z,9.67
2017-10-20T00:09:26.195Z,9.33
2017-10-20T00:11:28.886Z,10.23
2017-10-20T00:13:31.752Z,10.17
2017-10-20T00:15:34.400Z,10.73
2017-10-20T00:17:37.852Z,10.33
2017-10-20T00:19:40.498Z,10.60
2017-10-20T00:21:43.155Z,10.43
2017-10-20T00:23:45.812Z,10.10
2017-10-20T00:25:49.240Z,10.13
2017-10-20T00:27:51.903Z,10.40
2017-10-20T00:29:54.578Z,11.23
2017-10-20T00:31:57.271Z,10.50
2017-10-20T00:33:59.954Z,10.87
2017-10-20T00:36:02.632Z,9.20
2017-10-20T00:38:05.292Z,10.60
2017-10-20T00:40:07.965Z,10.87
2017-10-20T00:42:10.628Z,10.43
2017-10-20T00:44:13.313Z,9.60
2017-10-20T00:46:15.980Z,9.93
2017-10-20T00:50:47.495Z,10.10
2017-10-20T00:52:50.172Z,10.90
2017-10-20T00:54:52.929Z,10.50
2017-10-20T00:56:55.658Z,11.80
2017-10-20T00:58:58.363Z,11.13
2017-10-20T01:01:01.029Z,11.20
2017-10-20T01:03:04.485Z,12.20
2017-10-20T01:05:07.165Z,12.10
2017-10-20T01:07:09.817Z,13.67
2017-10-20T01:09:12.511Z,12.37
2017-10-20T01:11:15.199Z,12.20
2017-10-20T01:13:18.618Z,12.70
2017-10-20T01:15:22.063Z,12.00
2017-10-20T01:17:24.748Z,12.63
2017-10-20T01:19:27.455Z,12.77
2017-10-20T01:21:30.927Z,13.20
2017-10-20T01:23:33.689Z,12.57
2017-10-20T01:25:36.382Z,13.17
2017-10-20T01:27:39.106Z,11.60
2017-10-20T01:29:42.110Z,12.50
2017-10-20T01:31:44.791Z,13.47
2017-10-20T01:33:47.527Z,12.60
2017-10-20T01:35:51.154Z,15.37
2017-10-20T01:37:53.860Z,12.63
2017-10-20T01:39:56.674Z,13.80
2017-10-20T01:42:00.104Z,13.53
2017-10-20T01:44:02.786Z,13.00
2017-10-20T01:46:05.641Z,12.93
2017-10-20T01:48:09.092Z,12.07
2017-10-20T01:50:11.799Z,12.93
2017-10-20T01:52:15.379Z,12.57
2017-10-20T01:54:18.213Z,10.80
2017-10-20T01:56:20.901Z,13.27
2017-10-20T01:58:23.798Z,12.37
2017-10-20T02:00:26.489Z,12.40
2017-10-20T02:02:29.221Z,12.40
2017-10-20T02:04:31.897Z,12.60
2017-10-20T02:06:34.678Z,11.83
2017-10-20T02:08:37.397Z,11.90
2017-10-20T02:10:41.561Z,12.43
2017-10-20T02:12:44.266Z,13.70
2017-10-20T02:14:46.975Z,13.00
2017-10-20T02:16:50.514Z,11.90
2017-10-20T02:18:53.197Z,12.93
2017-10-20T02:20:55.965Z,11.97
2017-10-20T02:22:58.645Z,11.60
2017-10-20T02:25:01.330Z,11.43
2017-10-20T02:27:04.010Z,10.73
2017-10-20T02:29:06.709Z,10.73
2017-10-20T02:31:09.393Z,11.67
2017-10-20T02:33:12.063Z,11.37
2017-10-20T02:35:14.751Z,11.00
2017-10-20T02:37:17.444Z,10.57
2017-10-20T02:39:20.901Z,10.40
2017-10-20T02:41:23.601Z,11.17
2017-10-20T02:43:26.276Z,10.77
2017-10-20T02:45:28.955Z,9.97
2017-10-20T02:47:32.500Z,10.67
2017-10-20T02:49:35.186Z,10.30
2017-10-20T02:51:37.992Z,9.43
2017-10-20T02:53:40.704Z,10.90
2017-10-20T02:55:44.133Z,11.53
2017-10-20T02:57:46.899Z,11.17
2017-10-20T02:59:49.636Z,12.10
2017-10-20T03:01:53.115Z,12.67
2017-10-20T03:03:55.798Z,12.20
2017-10-20T03:05:58.494Z,12.23
2017-10-20T03:08:01.940Z,13.20
2017-10-20T03:10:04.814Z,13.17
2017-10-20T03:12:07.688Z,12.70
2017-10-20T03:14:10.578Z,11.90
2017-10-20T03:16:13.248Z,11.70
2017-10-20T03:18:15.951Z,12.50
2017-10-20T03:20:18.711Z,11.50
2017-10-20T03:22:21.352Z,13.10
2017-10-20T03:24:24.173Z,14.13
2017-10-20T03:26:26.913Z,12.80
2017-10-20T03:28:30.335Z,14.53
2017-10-20T03:30:33.003Z,14.00
2017-10-20T03:32:35.783Z,14.10
2017-10-20T03:34:38.559Z,13.13
2017-10-20T03:36:41.215Z,13.80
2017-10-20T03:38:43.876Z,13.03
2017-10-20T03:40:47.330Z,13.07
2017-10-20T03:42:50.000Z,13.40
2017-10-20T03:44:52.677Z,13.10
2017-10-20T03:46:55.326Z,12.50
2017-10-20T03:49:03.169Z,12.70
2017-10-20T03:51:05.883Z,12.33
2017-10-20T03:53:09.314Z,13.73
2017-10-20T03:55:11.999Z,12.10
2017-10-20T03:57:14.811Z,11.40
2017-10-20T03:59:18.979Z,11.57
2017-10-20T04:01:21.641Z,11.63
2017-10-20T04:03:24.522Z,10.70
2017-10-20T04:05:27.239Z,9.67
2017-10-20T04:07:30.018Z,10.50
2017-10-20T04:09:32.733Z,9.50
2017-10-20T04:11:36.223Z,9.80
2017-10-20T04:13:39.688Z,9.00
2017-10-20T04:15:42.388Z,10.57
2017-10-20T04:17:45.850Z,9.90
2017-10-20T04:19:48.596Z,10.63
2017-10-20T04:21:51.270Z,10.73
2017-10-20T04:23:53.951Z,10.80
2017-10-20T04:25:56.630Z,10.50
2017-10-20T04:27:59.292Z,11.53
2017-10-20T04:30:01.988Z,10.50
2017-10-20T04:32:04.676Z,11.00
2017-10-20T04:34:07.553Z,9.80
2017-10-20T04:36:10.249Z,9.50
2017-10-20T04:38:12.895Z,8.50
2017-10-20T04:40:15.577Z,8.27
2017-10-20T04:42:18.533Z,8.17
2017-10-20T04:44:21.188Z,7.30
2017-10-20T04:46:24.616Z,6.63
2017-10-20T04:48:27.282Z,6.20
2017-10-20T04:50:29.959Z,7.37
2017-10-20T04:52:32.616Z,6.90
2017-10-20T04:54:36.085Z,7.10
2017-10-20T04:56:38.805Z,6.20
2017-10-20T04:58:41.469Z,7.40
2017-10-20T05:00:44.911Z,6.53
2017-10-20T05:02:47.572Z,6.23
2017-10-20T05:04:50.337Z,6.63
2017-10-20T05:06:52.987Z,6.87
2017-10-20T05:08:56.390Z,6.70
2017-10-20T05:10:59.052Z,7.00
2017-10-20T05:13:02.479Z,6.90
2017-10-20T05:15:05.160Z,7.40
2017-10-20T05:17:07.812Z,7.33
2017-10-20T05:19:10.478Z,7.03
2017-10-20T05:21:13.910Z,6.70
2017-10-20T05:23:16.568Z,7.03
2017-10-20T05:25:20.389Z,8.30
2017-10-20T05:27:23.036Z,7.37
2017-10-20T05:29:25.753Z,7.80
2017-10-20T05:31:28.421Z,7.60
2017-10-20T05:33:31.076Z,7.60
2017-10-20T05:35:33.757Z,7.33
2017-10-20T05:37:36.426Z,7.57
2017-10-20T05:39:39.110Z,7.57
2017-10-20T05:41:41.757Z,7.13
2017-10-20T05:43:45.183Z,7.73
2017-10-20T05:45:47.858Z,8.40
2017-10-20T05:47:50.511Z,7.53
2017-10-20T05:49:53.195Z,7.00
2017-10-20T05:51:55.855Z,7.10
2017-10-20T05:53:59.286Z,6.70
2017-10-20T05:56:01.962Z,6.93
2017-10-20T05:58:04.619Z,7.03
2017-10-20T06:00:07.295Z,6.77
2017-10-20T06:02:09.953Z,7.00
2017-10-20T06:04:13.367Z,7.73
2017-10-20T06:06:16.076Z,7.53
2017-10-20T06:08:18.736Z,6.87
2017-10-20T06:10:21.539Z,6.90
2017-10-20T06:12:24.279Z,6.93
2017-10-20T06:14:27.046Z,7.10
2017-10-20T06:16:29.713Z,7.07
2017-10-20T06:18:35.076Z,7.63
2017-10-20T06:20:38.077Z,7.40
2017-10-20T06:22:40.750Z,7.33
2017-10-20T06:24:43.412Z,8.03
2017-10-20T06:26:46.114Z,6.70
2017-10-20T06:28:48.757Z,6.97
2017-10-20T06:30:51.445Z,7.23
2017-10-20T06:32:54.129Z,6.93
2017-10-20T06:34:56.801Z,7.50
2017-10-20T06:36:59.453Z,7.37
2017-10-20T06:39:02.119Z,7.40
2017-10-20T06:41:05.800Z,8.00
2017-10-20T06:43:08.442Z,7.20
2017-10-20T06:45:11.306Z,6.87
2017-10-20T06:47:13.995Z,7.67
2017-10-20T06:49:16.759Z,7.60
2017-10-20T06:51:19.433Z,7.10
2017-10-20T06:53:22.102Z,7.83
2017-10-20T06:55:24.807Z,7.67
2017-10-20T06:57:27.469Z,7.70
2017-10-20T06:59:30.125Z,7.63
2017-10-20T07:01:32.834Z,7.90
2017-10-20T07:03:35.500Z,7.50
2017-10-20T07:05:38.282Z,7.63
2017-10-20T07:07:40.956Z,8.33
2017-10-20T07:09:43.716Z,7.87
2017-10-20T07:11:46.505Z,7.90
2017-10-20T07:13:49.384Z,6.77
2017-10-20T07:15:52.154Z,6.60
2017-10-20T07:17:54.934Z,7.00
2017-10-20T07:19:58.486Z,6.70
2017-10-20T07:22:02.028Z,7.00
2017-10-20T07:24:04.910Z,7.33
2017-10-20T07:26:07.643Z,7.00
2017-10-20T07:28:10.312Z,7.33
2017-10-20T07:30:13.021Z,7.80
2017-10-20T07:32:15.760Z,8.40
2017-10-20T07:34:18.398Z,8.93
2017-10-20T07:36:21.117Z,8.70
2017-10-20T07:38:23.789Z,8.23
2017-10-20T07:40:26.493Z,8.10
2017-10-20T07:42:29.936Z,7.97
2017-10-20T07:44:32.906Z,7.17
2017-10-20T07:46:35.579Z,8.17
2017-10-20T07:48:38.233Z,7.00
2017-10-20T07:50:41.166Z,6.70
2017-10-20T07:52:43.820Z,7.60
2017-10-20T07:54:46.480Z,7.30
2017-10-20T07:56:49.215Z,6.90
2017-10-20T07:58:51.862Z,5.53
2017-10-20T08:00:54.595Z,6.23
2017-10-20T08:02:57.277Z,5.77
2017-10-20T08:04:59.966Z,5.10
2017-10-20T08:07:02.840Z,4.60
2017-10-20T08:09:05.617Z,4.60
2017-10-20T08:11:08.302Z,4.00
2017-10-20T08:13:10.986Z,3.73
2017-10-20T08:15:13.694Z,3.50
2017-10-20T08:17:16.325Z,3.77
2017-10-20T08:19:18.999Z,3.20
2017-10-20T08:21:21.681Z,2.90
2017-10-20T08:23:24.319Z,3.40
2017-10-20T08:25:27.729Z,2.70
2017-10-20T08:27:31.175Z,3.17
2017-10-20T08:29:33.929Z,2.33
2017-10-20T08:31:36.603Z,2.80
2017-10-20T08:33:39.379Z,2.50
2017-10-20T08:35:42.030Z,2.50
2017-10-20T08:37:45.475Z,2.37
2017-10-20T08:39:48.154Z,2.13
2017-10-20T08:41:50.793Z,2.07
2017-10-20T08:43:53.579Z,1.97
2017-10-20T08:45:56.357Z,1.90
2017-10-20T08:47:59.144Z,2.40
2017-10-20T08:50:01.807Z,2.20
2017-10-20T08:52:04.529Z,1.80
2017-10-20T08:54:07.799Z,2.27
2017-10-20T08:56:10.455Z,2.00
2017-10-20T08:58:13.260Z,2.50
2017-10-20T09:00:16.017Z,2.37
2017-10-20T09:02:18.704Z,2.30
2017-10-20T09:04:21.384Z,2.47
2017-10-20T09:06:24.034Z,2.73
2017-10-20T09:08:28.582Z,1.87
2017-10-20T09:10:31.438Z,1.90
2017-10-20T09:12:34.114Z,1.80
2017-10-20T09:14:36.764Z,2.90
2017-10-20T09:16:40.205Z,1.87
2017-10-20T09:18:42.847Z,2.33
2017-10-20T09:20:45.543Z,2.20
2017-10-20T09:22:48.236Z,1.70
2017-10-20T09:24:50.869Z,1.80
2017-10-20T09:26:54.288Z,2.00
2017-10-20T09:28:56.970Z,1.90
2017-10-20T09:30:59.633Z,1.73
2017-10-20T09:33:02.434Z,2.10
2017-10-20T09:35:05.474Z,1.90
2017-10-20T09:37:09.208Z,1.90
2017-10-20T09:39:11.852Z,1.83
2017-10-20T09:41:15.311Z,1.90
2017-10-20T09:43:17.965Z,2.13
2017-10-20T09:45:20.660Z,1.70
2017-10-20T09:47:24.015Z,1.70
2017-10-20T09:49:26.696Z,1.70
2017-10-20T09:51:29.341Z,1.67
2017-10-20T09:53:32.780Z,2.13
2017-10-20T09:55:35.433Z,1.90
2017-10-20T09:57:38.315Z,1.77
2017-10-20T09:59:41.003Z,2.10
2017-10-20T10:01:43.640Z,1.73
2017-10-20T10:03:47.054Z,2.30
2017-10-20T10:05:49.726Z,1.70
2017-10-20T10:07:52.391Z,1.87
2017-10-20T10:09:55.820Z,1.93
2017-10-20T10:11:58.583Z,2.07
2017-10-20T10:14:01.362Z,1.80
2017-10-20T10:16:04.086Z,1.50
2017-10-20T10:18:06.774Z,1.70
2017-10-20T10:20:10.194Z,1.80
2017-10-20T10:22:12.884Z,1.87
2017-10-20T10:24:15.666Z,1.70
2017-10-20T10:26:18.332Z,1.83
2017-10-20T10:28:21.017Z,1.67
2017-10-20T10:30:23.715Z,1.93
2017-10-20T10:32:26.366Z,1.83
2017-10-20T10:34:29.042Z,1.67
2017-10-20T10:36:31.724Z,1.90
2017-10-20T10:38:34.380Z,2.00
2017-10-20T10:40:37.084Z,2.30
2017-10-20T10:42:39.753Z,1.80
2017-10-20T10:44:42.610Z,1.70
2017-10-20T10:46:46.144Z,1.77
2017-10-20T10:48:48.908Z,2.00
2017-10-20T10:50:51.723Z,2.13
2017-10-20T10:52:54.428Z,1.93
2017-10-20T10:54:57.965Z,2.27
2017-10-20T10:57:00.671Z,2.33
2017-10-20T10:59:03.312Z,2.07
2017-10-20T11:01:06.009Z,2.30
2017-10-20T11:03:08.676Z,2.00
2017-10-20T11:05:11.398Z,2.17
2017-10-20T11:07:26.780Z,2.17
2017-10-20T11:09:30.239Z,2.40
2017-10-20T11:11:44.787Z,1.87
2017-10-20T11:13:47.542Z,1.67
2017-10-20T11:15:50.270Z,1.80
2017-10-20T11:17:53.000Z,2.10
2017-10-20T11:19:55.640Z,2.17
2017-10-20T11:21:59.169Z,2.00
2017-10-20T11:24:01.861Z,2.47
2017-10-20T11:26:04.623Z,2.80
2017-10-20T11:28:07.402Z,2.37
2017-10-20T11:30:10.191Z,3.33
2017-10-20T11:32:12.867Z,2.37
2017-10-20T11:34:15.533Z,1.90
2017-10-20T11:36:18.411Z,1.70
2017-10-20T11:38:21.067Z,3.03
2017-10-20T11:40:24.533Z,2.40
2017-10-20T11:42:27.232Z,1.93
2017-10-20T11:44:30.667Z,2.30
2017-10-20T11:46:33.354Z,2.27
2017-10-20T11:48:36.089Z,2.10
2017-10-20T11:50:38.828Z,2.80
2017-10-20T11:52:41.556Z,2.40
2017-10-20T11:54:44.375Z,2.30
2017-10-20T11:56:47.076Z,2.23
2017-10-20T11:58:50.509Z,2.43
2017-10-20T12:00:53.189Z,2.20
2017-10-20T12:02:55.968Z,2.27
2017-10-20T12:04:58.668Z,2.20
2017-10-20T12:07:01.568Z,2.07
2017-10-20T12:09:04.350Z,2.37
2017-10-20T12:11:07.021Z,2.17
2017-10-20T12:13:09.755Z,1.97
2017-10-20T12:15:12.446Z,2.37
2017-10-20T12:17:15.117Z,2.13
2017-10-20T12:19:17.765Z,2.33
2017-10-20T12:21:20.493Z,2.33
2017-10-20T12:23:23.148Z,1.90
2017-10-20T12:25:25.816Z,2.80
2017-10-20T12:27:28.482Z,2.30
2017-10-20T12:29:31.181Z,2.10
2017-10-20T12:31:33.924Z,2.67
2017-10-20T12:33:37.349Z,2.07
2017-10-20T12:35:40.139Z,1.70
2017-10-20T12:37:42.897Z,2.23
2017-10-20T12:39:45.530Z,1.90
2017-10-20T12:41:49.066Z,1.87
2017-10-20T12:43:51.692Z,1.87
2017-10-20T12:45:54.360Z,2.33
2017-10-20T12:47:58.504Z,2.27
2017-10-20T12:50:01.917Z,2.23
2017-10-20T12:52:04.579Z,1.93
2017-10-20T12:54:07.250Z,2.20
2017-10-20T12:56:10.891Z,2.00
2017-10-20T12:58:13.550Z,2.53
2017-10-20T13:00:16.220Z,2.73
2017-10-20T13:02:18.878Z,2.30
2017-10-20T13:04:21.597Z,2.50
2017-10-20T13:06:24.263Z,2.17
2017-10-20T13:08:26.929Z,1.93
2017-10-20T13:10:29.760Z,1.90
2017-10-20T13:12:33.927Z,2.67
2017-10-20T13:14:36.581Z,1.93
2017-10-20T13:16:39.237Z,2.30
2017-10-20T13:18:42.659Z,2.50
2017-10-20T13:20:45.371Z,2.37
2017-10-20T13:22:48.036Z,2.47
2017-10-20T13:24:50.716Z,2.60
2017-10-20T13:26:53.391Z,2.03
2017-10-20T13:28:56.053Z,2.37
2017-10-20T13:30:58.733Z,1.93
2017-10-20T13:33:02.634Z,2.13
2017-10-20T13:35:05.373Z,1.80
2017-10-20T13:37:08.825Z,3.20
2017-10-20T13:39:11.478Z,2.30
2017-10-20T13:41:14.284Z,1.73
2017-10-20T13:43:17.739Z,2.00
2017-10-20T13:45:21.062Z,2.13
2017-10-20T13:47:23.735Z,1.73
2017-10-20T13:49:26.836Z,1.60
2017-10-20T13:51:30.323Z,1.83
2017-10-20T13:53:32.998Z,1.53
2017-10-20T13:55:35.747Z,2.00
2017-10-20T13:57:38.411Z,1.70
2017-10-20T13:59:41.100Z,1.93
2017-10-20T14:01:43.777Z,1.60
2017-10-20T14:03:46.559Z,2.13
2017-10-20T14:05:49.256Z,2.30
2017-10-20T14:07:51.908Z,2.37
2017-10-20T14:09:54.568Z,2.57
2017-10-20T14:11:57.268Z,2.00
2017-10-20T14:13:59.931Z,2.30
2017-10-20T14:16:02.612Z,2.57
2017-10-20T14:18:05.257Z,1.73
2017-10-20T14:20:08.684Z,1.87
2017-10-20T14:22:11.362Z,2.30
2017-10-20T14:24:14.028Z,2.00
2017-10-20T14:26:16.839Z,2.27
2017-10-20T14:28:19.508Z,1.90
2017-10-20T14:30:22.165Z,2.13
2017-10-20T14:32:24.843Z,2.10
2017-10-20T14:34:27.500Z,2.33
2017-10-20T14:36:30.167Z,1.60
2017-10-20T14:38:33.635Z,2.50
2017-10-20T14:40:36.292Z,2.27
2017-10-20T14:42:38.930Z,1.90
2017-10-20T14:44:41.732Z,1.70
2017-10-20T14:46:44.586Z,1.73
2017-10-20T14:48:47.999Z,1.80
2017-10-20T14:50:50.777Z,2.30
2017-10-20T14:52:53.566Z,2.43
2017-10-20T14:54:56.235Z,1.70
2017-10-20T14:56:58.895Z,2.30
2017-10-20T14:59:01.548Z,1.90
2017-10-20T15:01:04.227Z,2.33
2017-10-20T15:03:07.645Z,2.90
2017-10-20T15:05:10.523Z,2.10
2017-10-20T15:07:13.214Z,2.00
2017-10-20T15:09:16.004Z,2.57
2017-10-20T15:11:18.696Z,2.13
2017-10-20T15:13:21.570Z,2.10
2017-10-20T15:15:24.226Z,2.20
2017-10-20T15:17:26.892Z,1.97
2017-10-20T15:19:29.573Z,1.63
2017-10-20T15:21:32.467Z,2.20
2017-10-20T15:23:35.140Z,2.73
2017-10-20T15:25:38.079Z,2.53
2017-10-20T15:27:41.485Z,2.27
2017-10-20T15:29:44.270Z,2.97
2017-10-20T15:31:47.058Z,2.33
2017-10-20T15:33:49.719Z,3.90
2017-10-20T15:35:52.400Z,2.80
2017-10-20T15:37:55.116Z,2.60
2017-10-20T15:39:57.784Z,2.33
2017-10-20T15:42:00.435Z,2.30
2017-10-20T15:44:03.114Z,2.80
2017-10-20T15:46:05.891Z,2.47
2017-10-20T15:48:08.542Z,2.60
2017-10-20T15:50:11.984Z,2.30
2017-10-20T15:52:14.652Z,2.90
2017-10-20T15:54:17.348Z,2.57
2017-10-20T15:56:20.070Z,2.87
2017-10-20T15:58:23.476Z,2.00
2017-10-20T16:00:26.180Z,3.00
2017-10-20T16:02:28.810Z,2.73
2017-10-20T16:04:32.243Z,2.90
2017-10-20T16:06:34.886Z,2.47
2017-10-20T16:08:37.587Z,2.97
2017-10-20T16:10:40.367Z,3.30
2017-10-20T16:12:43.022Z,2.70
2017-10-20T16:14:45.690Z,14.37
2017-10-20T16:16:49.137Z,4.67
2017-10-20T16:18:51.820Z,10.20
2017-10-20T16:20:54.580Z,14.07
2017-10-20T16:22:57.266Z,2.93
2017-10-20T16:24:59.933Z,3.20
2017-10-20T16:27:02.793Z,3.00
2017-10-20T16:29:05.609Z,2.53
2017-10-20T16:31:08.519Z,3.13
2017-10-20T16:33:12.089Z,2.33
2017-10-20T16:35:14.835Z,3.70
2017-10-20T16:37:17.577Z,2.40
2017-10-20T16:39:21.026Z,3.43
2017-10-20T16:41:24.560Z,4.00
2017-10-20T16:43:28.086Z,3.57
2017-10-20T16:45:30.839Z,2.87
2017-10-20T16:47:34.375Z,4.80
2017-10-20T16:49:39.791Z,3.30
2017-10-20T16:51:43.227Z,3.80
2017-10-20T16:53:46.008Z,3.90
2017-10-20T16:55:48.688Z,3.83
2017-10-20T16:57:51.515Z,4.73
2017-10-20T16:59:55.028Z,3.67
2017-10-20T17:01:57.684Z,4.90
2017-10-20T17:04:01.227Z,4.60
2017-10-20T17:06:03.879Z,3.53
2017-10-20T17:08:06.777Z,3.70
2017-10-20T17:10:10.294Z,4.07
2017-10-20T17:12:12.981Z,3.73
2017-10-20T17:14:15.654Z,3.23
2017-10-20T17:16:18.405Z,2.93
2017-10-20T17:18:21.198Z,3.10
2017-10-20T17:20:24.055Z,3.40
2017-10-20T17:22:26.850Z,3.23
2017-10-20T17:24:30.135Z,3.37
2017-10-20T17:26:33.149Z,3.40
2017-10-20T17:28:38.410Z,4.30
2017-10-20T17:30:42.035Z,3.67
2017-10-20T17:32:44.768Z,6.00
2017-10-20T17:34:47.621Z,3.23
2017-10-20T17:36:50.407Z,3.30
2017-10-20T17:38:53.113Z,4.20
2017-10-20T17:40:55.887Z,2.80
2017-10-20T17:42:58.572Z,3.50
2017-10-20T17:45:01.259Z,3.90
2017-10-20T17:47:04.886Z,3.10
2017-10-20T17:49:07.726Z,3.70
2017-10-20T17:51:11.214Z,3.43
2017-10-20T17:53:13.877Z,3.20
2017-10-20T17:55:16.548Z,2.77
2017-10-20T17:57:19.229Z,3.87
2017-10-20T17:59:21.890Z,3.40
2017-10-20T18:01:24.589Z,3.73
2017-10-20T18:03:27.289Z,3.70
2017-10-20T18:05:30.757Z,4.10
2017-10-20T18:07:33.407Z,3.50
2017-10-20T18:09:36.350Z,2.77
2017-10-20T18:11:39.765Z,3.00
2017-10-20T18:13:42.431Z,3.23
2017-10-20T18:15:45.145Z,3.00
2017-10-20T18:17:47.829Z,2.73
2017-10-20T18:19:50.571Z,3.30
2017-10-20T18:21:53.388Z,3.17
2017-10-20T18:23:56.052Z,3.43
2017-10-20T18:25:58.721Z,4.03
2017-10-20T18:28:01.407Z,3.20
2017-10-20T18:30:04.075Z,4.13
2017-10-20T18:32:06.731Z,4.00
2017-10-20T18:34:09.539Z,3.43
2017-10-20T18:36:12.293Z,3.60
2017-10-20T18:38:14.992Z,3.40
2017-10-20T18:40:17.686Z,3.50
2017-10-20T18:42:20.422Z,3.60
2017-10-20T18:44:23.110Z,2.83
2017-10-20T18:46:25.761Z,3.30
2017-10-20T18:48:28.656Z,3.70
2017-10-20T18:50:31.434Z,3.37
2017-10-20T18:52:34.101Z,3.00
2017-10-20T18:54:36.783Z,5.80
2017-10-20T18:56:39.508Z,3.77
2017-10-20T18:58:42.189Z,4.87
2017-10-20T19:00:44.859Z,8.73
2017-10-20T19:02:47.615Z,3.80
2017-10-20T19:04:50.296Z,3.07
2017-10-20T19:06:53.084Z,2.93
2017-10-20T19:08:56.132Z,4.17
2017-10-20T19:10:58.776Z,3.13
2017-10-20T19:13:02.211Z,8.07
2017-10-20T19:15:04.925Z,5.50
2017-10-20T19:17:07.579Z,4.77
2017-10-20T19:19:10.332Z,5.33
2017-10-20T19:21:13.212Z,4.40
2017-10-20T19:23:15.887Z,4.10
2017-10-20T19:25:18.563Z,3.53
2017-10-20T19:27:21.225Z,3.10
2017-10-20T19:29:23.911Z,3.27
2017-10-20T19:31:26.575Z,3.57
2017-10-20T19:33:29.560Z,3.20
2017-10-20T19:35:32.223Z,4.63
2017-10-20T19:37:35.650Z,3.50
2017-10-20T19:39:38.437Z,3.30
2017-10-20T19:41:41.080Z,3.20
2017-10-20T19:43:44.724Z,2.73
2017-10-20T19:45:48.501Z,2.90
2017-10-20T19:47:51.598Z,3.53
2017-10-20T19:49:54.291Z,3.27
2017-10-20T19:51:56.947Z,4.20
2017-10-20T19:53:59.609Z,3.47
2017-10-20T19:56:02.398Z,3.83
2017-10-20T19:58:05.174Z,3.83
2017-10-20T20:00:07.966Z,3.47
2017-10-20T20:02:10.626Z,3.37
2017-10-20T20:04:13.526Z,2.80
2017-10-20T20:06:16.190Z,3.33
2017-10-20T20:08:18.884Z,3.73
2017-10-20T20:10:21.688Z,3.10
2017-10-20T20:12:24.372Z,3.23
2017-10-20T20:14:27.875Z,2.90
2017-10-20T20:16:31.314Z,2.60
2017-10-20T20:18:34.065Z,2.90
2017-10-20T20:20:36.756Z,4.07
2017-10-20T20:22:39.433Z,3.30
2017-10-20T20:24:42.104Z,3.37
2017-10-20T20:26:44.903Z,2.73
2017-10-20T20:28:47.703Z,3.37
2017-10-20T20:30:50.359Z,3.70
2017-10-20T20:32:53.668Z,3.00
2017-10-20T20:34:56.379Z,3.87
2017-10-20T20:36:59.808Z,3.57
2017-10-20T20:39:02.473Z,3.00
2017-10-20T20:41:05.127Z,3.00
2017-10-20T20:43:08.680Z,3.07
2017-10-20T20:45:11.348Z,2.50
2017-10-20T20:47:14.213Z,3.30
2017-10-20T20:49:16.899Z,3.93
2017-10-20T20:51:19.887Z,4.03
2017-10-20T20:53:23.673Z,3.20
2017-10-20T20:55:26.348Z,3.03
2017-10-20T20:57:29.140Z,3.33
2017-10-20T20:59:32.218Z,2.60
2017-10-20T21:01:34.889Z,3.37
2017-10-20T21:03:37.529Z,3.27
2017-10-20T21:05:41.070Z,3.57
2017-10-20T21:07:43.726Z,2.93
2017-10-20T21:09:46.399Z,2.80
2017-10-20T21:11:49.075Z,3.40
2017-10-20T21:13:51.740Z,2.20
2017-10-20T21:15:55.159Z,3.13
2017-10-20T21:17:57.816Z,3.67
2017-10-20T21:20:01.256Z,3.60
2017-10-20T21:22:03.916Z,2.93
2017-10-20T21:24:06.689Z,3.00
2017-10-20T21:26:09.362Z,3.00
2017-10-20T21:28:12.037Z,3.77
2017-10-20T21:30:14.734Z,3.10
2017-10-20T21:32:17.491Z,3.07
2017-10-20T21:34:20.177Z,2.97
2017-10-20T21:36:22.971Z,3.00
2017-10-20T21:38:25.653Z,2.60
2017-10-20T21:40:28.400Z,3.47
2017-10-20T21:42:31.084Z,2.70
2017-10-20T21:44:33.853Z,2.83
2017-10-20T21:46:36.501Z,3.30
2017-10-20T21:48:40.028Z,3.20
2017-10-20T21:50:42.701Z,3.07
2017-10-20T21:52:45.370Z,2.93
2017-10-20T21:54:48.055Z,3.30
2017-10-20T21:56:50.819Z,2.83
2017-10-20T21:58:53.469Z,2.80
2017-10-20T22:00:57.211Z,3.30
2017-10-20T22:02:59.876Z,3.53
2017-10-20T22:05:02.556Z,3.20
2017-10-20T22:07:05.341Z,2.70
2017-10-20T22:09:08.040Z,2.70
2017-10-20T22:11:10.707Z,3.43
2017-10-20T22:13:13.456Z,2.80
2017-10-20T22:15:16.271Z,3.63
2017-10-20T22:17:19.162Z,2.90
2017-10-20T22:19:21.849Z,3.23
2017-10-20T22:21:24.494Z,3.40
2017-10-20T22:23:27.403Z,3.07
2017-10-20T22:25:30.077Z,2.97
2017-10-20T22:27:32.725Z,2.80
2017-10-20T22:29:35.397Z,3.10
2017-10-20T22:31:38.043Z,2.90
2017-10-20T22:33:41.475Z,2.80
2017-10-20T22:35:44.168Z,3.67
2017-10-20T22:37:46.814Z,2.43
2017-10-20T22:39:49.487Z,3.13
2017-10-20T22:41:52.272Z,3.50
2017-10-20T22:43:54.917Z,3.13
2017-10-20T22:45:58.388Z,3.40
2017-10-20T22:48:01.040Z,3.60
2017-10-20T22:50:04.068Z,3.20
2017-10-20T22:52:07.607Z,2.80
2017-10-20T22:54:10.373Z,3.20
2017-10-20T22:56:13.153Z,3.57
2017-10-20T22:58:15.814Z,3.30
2017-10-20T23:00:18.502Z,3.83
2017-10-20T23:02:21.172Z,3.23
2017-10-20T23:04:23.961Z,3.30
2017-10-20T23:06:26.641Z,3.30
2017-10-20T23:08:29.293Z,3.10
2017-10-20T23:10:31.975Z,3.03
2017-10-20T23:12:34.617Z,3.43
2017-10-20T23:14:37.338Z,3.70
2017-10-20T23:16:40.116Z,3.70
2017-10-20T23:18:42.787Z,3.43
2017-10-20T23:20:45.471Z,3.60
2017-10-20T23:22:48.138Z,3.30
2017-10-20T23:24:50.830Z,3.10
2017-10-20T23:26:53.483Z,3.80
2017-10-20T23:28:56.175Z,3.27
2017-10-20T23:30:58.842Z,3.03
2017-10-20T23:33:01.532Z,4.13
2017-10-20T23:35:04.189Z,2.83
2017-10-20T23:37:06.848Z,3.97
2017-10-20T23:39:10.375Z,3.47
2017-10-20T23:41:13.186Z,3.67
2017-10-20T23:43:15.847Z,2.70
2017-10-20T23:45:18.607Z,3.00
2017-10-20T23:47:21.361Z,3.67
2017-10-20T23:49:24.775Z,3.83
2017-10-20T23:51:27.559Z,3.30
2017-10-20T23:53:30.198Z,4.00
2017-10-20T23:55:33.659Z,3.03
2017-10-20T23:57:36.420Z,3.07
2017-10-20T23:59:39.087Z,3.37
